Terminal Aerodrome Forecast
Issued by NWS

Home | Current Version | Previous Version | Graphics & Text | Print | Product List | Glossary On
Versions: 1 2 3 4 5 6 7 8 9 10 11 12 13 14 15 16 17 18 19 20 21 22
000
FTUS43 KMPX 201700
TAFRNH
TAF
KRNH 201732Z 2018/2118 10005KT P6SM SCT020 SCT250
     FM210500 13007KT P6SM VCSH SCT015 BKN070
      TEMPO 2106/2109 4SM TSRA SCT008 OVC050CB
     FM211000 13009KT 4SM -SHRA BR SCT007 BKN020 OVC050
      TEMPO 2112/2115 2SM -TSRA BR BKN007 OVC015CB
     FM211700 16006KT P6SM SCT020 BKN035 OVC150=

USA.gov is the U.S. government's official web portal to all federal, state and local government web resources and services.